Hauptseite
METAR-TAF:

METAR-TAF

Flughäfen :

Bric della Croce

Turin, Italien

Breite: 45-02N, Länge: 007-44E, Höhe: 709 m

Beobachtung

Neuester Wetterbericht von vor 53 Minuten, um 09:55 UTC
Wind 5 kt aus Ost/Südost
Temperatur 9°C
Luftfeuchtigkeit 100%
Luftdruck 1018 hPa
Sichtweite: 8000 m
Aufgelockert bewölkt in der Höhe von 1000 ft
Aufgelockert bewölkt in der Höhe von 1300 ft

METAR: LIMK 250955Z 11005KT 8000 SCT010 SCT013 09/09 Q1018 RMK OVC VAL FOSCHIA VIS MIN 8000

Zeit: 12:48 (10:48 UTC)


TAF: fehlend

Wetterbeobachtungen und Prognosen von mehr als 4000 Flughäfen (METAR und TAF Bericht).

Die verfügbaren Stationen werden durch gelbe und rote Markierungen auf der Karte dargestellt.

Führen Sie die Maus auf sie, um den Namen der Station zu sehen.

Darauf klicken, um die Beobachtung von Wetterbeobachtungen und Prognosen zu sehen.

Um die Karte zu ändern : klicken Sie auf den grünen Tasten mit einem schwarzen Kreuz Zum Vergrößern, auf den grünen Button mit einem Gedankenstrich zu verkleinern, oder auf die grünen Pfeile für benachbarte Karten.


METAR-TAF: